Time;durP1;ratioP1;P1;durP2;ratioP2;P2;SDS_P1;SDS_P2;PMS_P1;PMS_P2;Temp;Humidity;BMP_temperature;BMP_pressure;BME280_temperature;BME280_humidity;BME280_pressure;Samples;Min_cycle;Max_cycle;Signal;HPM_P1;HPM_P2
2022/11/07 00:01:43;;;;;;;5.15;1.40;;;;;;;10.47;77.19;99161.81;5070890;28;20457;-93
2022/11/07 00:04:09;;;;;;;3.92;1.35;;;;;;;10.39;77.94;99174.91;5052289;28;20044;-93
2022/11/07 00:06:36;;;;;;;8.18;1.50;;;;;;;10.49;77.67;99170.56;5050772;28;20389;-93
2022/11/07 00:09:01;;;;;;;5.38;1.90;;;;;;;10.37;77.94;99163.47;5050416;28;20075;-93
2022/11/07 00:11:27;;;;;;;2.88;1.58;;;;;;;10.36;78.22;99172.75;5050713;28;20056;-93
2022/11/07 00:13:53;;;;;;;4.20;1.38;;;;;;;10.43;78.01;99168.91;5050554;28;20053;-93
2022/11/07 00:16:18;;;;;;;3.03;1.13;;;;;;;10.35;78.40;99171.09;5051044;28;20036;-92
2022/11/07 00:18:46;;;;;;;5.03;1.25;;;;;;;10.40;77.75;99178.44;5062155;28;20044;-93
2022/11/07 00:21:12;;;;;;;6.53;1.63;;;;;;;10.32;78.51;99188.03;5057475;28;20028;-93
2022/11/07 00:23:42;;;;;;;4.28;1.23;;;;;;;10.45;78.11;99189.34;5056574;28;20550;-92
2022/11/07 00:26:10;;;;;;;1.80;0.85;;;;;;;10.44;77.96;99184.16;5056504;28;20059;-93
2022/11/07 00:28:37;;;;;;;6.60;2.20;;;;;;;10.50;77.66;99191.25;5057325;28;20041;-93
2022/11/07 00:31:03;;;;;;;3.45;1.60;;;;;;;10.37;78.37;99196.16;5057749;28;20065;-93
2022/11/07 00:33:28;;;;;;;2.63;1.20;;;;;;;10.38;78.49;99203.25;5056782;28;20044;-94
2022/11/07 00:35:54;;;;;;;5.53;1.58;;;;;;;10.35;78.35;99190.19;5057249;28;20029;-92
2022/11/07 00:38:19;;;;;;;2.63;1.13;;;;;;;10.36;78.53;99205.44;5056676;28;20041;-93
2022/11/07 00:40:55;;;;;;;6.13;1.75;;;;;;;10.40;78.66;99205.69;5057581;28;20036;-93
2022/11/07 00:43:20;;;;;;;3.90;1.67;;;;;;;10.39;78.36;99213.06;5068149;28;20040;-93
2022/11/07 00:45:46;;;;;;;2.13;0.70;;;;;;;10.34;78.70;99215.81;5077186;28;20028;-94
2022/11/07 00:48:11;;;;;;;2.22;0.80;;;;;;;10.27;79.31;99215.28;5061476;28;20569;-93
2022/11/07 00:50:36;;;;;;;4.32;1.33;;;;;;;10.33;78.80;99222.34;5056236;28;20029;-93
2022/11/07 00:53:02;;;;;;;2.60;1.08;;;;;;;10.37;78.86;99228.06;5064221;28;20047;-93
2022/11/07 00:55:27;;;;;;;3.95;1.27;;;;;;;10.35;78.71;99220.16;5076682;28;20273;-92
2022/11/07 00:57:52;;;;;;;2.60;1.02;;;;;;;10.34;79.31;99229.44;5076686;28;20385;-93
2022/11/07 01:00:18;;;;;;;9.05;1.38;;;;;;;10.33;79.06;99227.78;5075882;28;20078;-94
2022/11/07 01:02:43;;;;;;;3.67;1.25;;;;;;;10.40;79.36;99224.78;5070254;28;20043;-93
2022/11/07 01:05:10;;;;;;;4.97;1.38;;;;;;;10.37;79.07;99217.97;5056661;28;20041;-94
2022/11/07 01:07:37;;;;;;;3.97;0.75;;;;;;;10.35;79.41;99219.34;5056689;28;20029;-93
2022/11/07 01:10:05;;;;;;;4.50;1.75;;;;;;;10.41;79.41;99223.69;5057011;28;20037;-94
2022/11/07 01:12:34;;;;;;;6.90;2.45;;;;;;;10.39;79.19;99213.06;5055476;28;20066;-92
2022/11/07 01:15:01;;;;;;;5.80;1.25;;;;;;;10.35;79.63;99213.91;5057299;28;20045;-92
2022/11/07 01:17:26;;;;;;;3.42;0.80;;;;;;;10.33;79.44;99219.59;5056491;28;20025;-94
2022/11/07 01:19:52;;;;;;;1.65;0.80;;;;;;;10.32;79.62;99226.16;5056780;28;20045;-92
2022/11/07 01:22:17;;;;;;;2.67;1.20;;;;;;;10.42;79.52;99229.94;5058668;28;20032;-93
2022/11/07 01:24:43;;;;;;;2.60;1.02;;;;;;;10.38;79.41;99225.06;5076513;28;20048;-93
2022/11/07 01:27:08;;;;;;;2.65;1.27;;;;;;;10.50;79.39;99224.78;5076798;28;20033;-93
2022/11/07 01:29:33;;;;;;;5.63;2.35;;;;;;;10.42;79.70;99227.22;5076544;28;20511;-93
2022/11/07 01:31:58;;;;;;;1.55;0.77;;;;;;;10.43;79.77;99226.13;5072418;28;20029;-94
2022/11/07 01:34:24;;;;;;;8.60;2.50;;;;;;;10.44;79.64;99227.75;5053490;28;20039;-93
2022/11/07 01:36:49;;;;;;;7.35;1.05;;;;;;;10.29;80.10;99226.72;5053280;28;20028;-93
2022/11/07 01:39:15;;;;;;;4.40;1.88;;;;;;;10.34;80.24;99225.88;5053509;28;20033;-93
2022/11/07 01:41:40;;;;;;;3.67;1.50;;;;;;;10.31;80.21;99215.56;5053129;28;20063;-93
2022/11/07 01:44:05;;;;;;;3.25;1.02;;;;;;;10.31;80.20;99223.72;5053165;28;20400;-93
2022/11/07 01:46:37;;;;;;;2.73;1.07;;;;;;;10.33;80.18;99227.00;5054540;28;20079;-93
2022/11/07 01:49:16;;;;;;;3.10;0.70;;;;;;;10.35;80.34;99225.59;5061569;28;20288;-92
2022/11/07 01:51:59;;;;;;;1.80;0.82;;;;;;;10.35;80.05;99230.25;5053668;28;20037;-95
2022/11/07 01:54:29;;;;;;;2.77;0.90;;;;;;;10.24;80.34;99224.00;5033030;28;20076;-94
2022/11/07 01:56:58;;;;;;;2.33;0.50;;;;;;;10.31;79.87;99230.00;5033419;28;20286;-93
2022/11/07 01:59:27;;;;;;;2.45;0.90;;;;;;;10.17;80.80;99221.56;5032405;28;20474;-92
2022/11/07 02:01:52;;;;;;;1.65;0.70;;;;;;;10.14;80.91;99220.22;5033562;28;20033;-92
2022/11/07 02:04:20;;;;;;;6.97;1.67;;;;;;;10.21;80.27;99214.47;5071050;28;20285;-93
2022/11/07 02:07:04;;;;;;;4.05;1.27;;;;;;;10.07;80.82;99224.31;5073269;28;20035;-92
2022/11/07 02:09:30;;;;;;;3.60;0.88;;;;;;;10.21;80.53;99219.13;5072900;28;20396;-92
2022/11/07 02:11:59;;;;;;;2.35;1.10;;;;;;;10.13;80.72;99218.56;5073218;28;20028;-93
2022/11/07 02:14:26;;;;;;;2.00;0.77;;;;;;;10.16;80.58;99228.94;5072557;28;20036;-93
2022/11/07 02:16:52;;;;;;;2.47;0.85;;;;;;;10.10;81.36;99218.31;5068319;28;20040;-93
2022/11/07 02:19:33;;;;;;;2.92;0.98;;;;;;;10.09;81.24;99222.94;5052378;28;20410;-92
2022/11/07 02:22:11;;;;;;;1.58;0.80;;;;;;;10.19;81.00;99224.03;5052673;28;20040;-94
2022/11/07 02:24:37;;;;;;;1.98;0.95;;;;;;;10.15;81.22;99221.84;5071333;28;20032;-93
2022/11/07 02:27:07;;;;;;;5.82;1.40;;;;;;;10.07;81.76;99227.03;5071797;28;20035;-90
2022/11/07 02:29:35;;;;;;;4.07;1.45;;;;;;;10.03;81.84;99232.19;5072510;28;20055;-93
2022/11/07 02:32:06;;;;;;;3.47;0.98;;;;;;;10.07;81.53;99224.31;5071416;28;20082;-93
2022/11/07 02:34:32;;;;;;;7.63;1.80;;;;;;;10.02;82.10;99209.63;5052298;28;20045;-93
2022/11/07 02:36:59;;;;;;;4.30;1.85;;;;;;;10.05;81.82;99227.28;5051935;28;20032;-93
2022/11/07 02:39:25;;;;;;;6.03;2.55;;;;;;;10.03;81.81;99224.03;5052030;28;20029;-93
2022/11/07 02:41:53;;;;;;;5.90;2.22;;;;;;;9.99;82.02;99217.50;5050542;28;20033;-92
2022/11/07 02:44:19;;;;;;;2.40;1.27;;;;;;;10.10;81.37;99218.31;5070481;28;20032;-93
2022/11/07 02:46:45;;;;;;;2.00;1.30;;;;;;;10.11;81.21;99212.56;5072059;28;20025;-92
2022/11/07 02:49:10;;;;;;;11.68;1.50;;;;;;;10.06;81.44;99219.94;5058647;28;20086;-92
2022/11/07 02:51:35;;;;;;;3.33;0.88;;;;;;;9.98;81.95;99218.59;5050470;28;20048;-93
2022/11/07 02:54:01;;;;;;;2.75;0.98;;;;;;;10.16;81.05;99234.38;5067838;28;20356;-92
2022/11/07 02:56:26;;;;;;;2.25;1.38;;;;;;;10.11;81.23;99228.91;5071793;28;20039;-93
2022/11/07 02:58:52;;;;;;;7.10;1.75;;;;;;;9.97;81.70;99222.41;5071556;28;20444;-94
2022/11/07 03:01:18;;;;;;;8.70;2.40;;;;;;;10.09;81.28;99230.31;5070993;28;20155;-92
2022/11/07 03:03:46;;;;;;;4.70;1.13;;;;;;;10.17;81.21;99227.00;5056590;28;20045;-93
2022/11/07 03:06:14;;;;;;;4.70;2.17;;;;;;;10.13;81.13;99224.00;5051346;28;20060;-94
2022/11/07 03:08:40;;;;;;;5.32;1.05;;;;;;;10.19;80.73;99227.53;5051155;28;20056;-93
2022/11/07 03:11:05;;;;;;;2.63;1.08;;;;;;;10.20;81.05;99233.81;5051316;28;20033;-93
2022/11/07 03:13:31;;;;;;;2.60;1.00;;;;;;;10.21;81.07;99230.00;5063853;28;20473;-93
2022/11/07 03:15:57;;;;;;;5.18;1.88;;;;;;;10.22;81.23;99232.47;5071240;28;20497;-92
2022/11/07 03:18:23;;;;;;;3.42;1.00;;;;;;;10.27;80.71;99229.72;5064195;28;20021;-93
2022/11/07 03:20:49;;;;;;;10.57;1.63;;;;;;;10.38;80.41;99237.84;5050994;28;20624;-92
2022/11/07 03:23:14;;;;;;;4.97;1.10;;;;;;;10.31;80.80;99237.34;5060693;28;20036;-91
2022/11/07 03:25:41;;;;;;;16.48;3.17;;;;;;;10.36;80.52;99242.78;5070515;28;20032;-91
2022/11/07 03:28:06;;;;;;;10.13;1.52;;;;;;;10.20;80.85;99242.00;5070606;28;20029;-92
2022/11/07 03:30:32;;;;;;;4.35;1.10;;;;;;;10.29;80.72;99245.81;5070920;28;20063;-92
2022/11/07 03:32:57;;;;;;;4.25;1.77;;;;;;;10.32;80.77;99247.97;5070023;28;20094;-93
2022/11/07 03:35:22;;;;;;;9.93;2.63;;;;;;;10.28;80.63;99241.44;5070722;28;20030;-91
2022/11/07 03:37:49;;;;;;;2.97;0.80;;;;;;;10.38;80.23;99246.88;5070143;28;20042;-91
2022/11/07 03:40:15;;;;;;;4.97;1.40;;;;;;;10.30;80.50;99239.25;5070555;28;20055;-92
2022/11/07 03:42:42;;;;;;;3.28;1.55;;;;;;;10.33;80.21;99243.34;5064513;28;20033;-92
2022/11/07 03:45:09;;;;;;;2.88;1.10;;;;;;;10.30;80.37;99246.59;5050368;28;20035;-91
2022/11/07 03:47:39;;;;;;;6.28;1.08;;;;;;;10.26;80.91;99254.50;5049880;28;20505;-91
2022/11/07 03:50:07;;;;;;;2.38;1.00;;;;;;;10.29;80.93;99253.97;5030672;28;20349;-91
2022/11/07 03:52:33;;;;;;;4.63;1.05;;;;;;;10.24;81.05;99256.69;5038915;28;20059;-93
2022/11/07 03:54:58;;;;;;;5.55;1.38;;;;;;;10.25;80.76;99247.44;5069709;28;20029;-92
2022/11/07 03:57:23;;;;;;;4.38;1.40;;;;;;;10.26;80.59;99244.44;5069899;28;20424;-92
2022/11/07 03:59:49;;;;;;;6.60;1.00;;;;;;;10.28;81.05;99249.59;5069250;28;20055;-92
2022/11/07 04:02:14;;;;;;;8.00;2.13;;;;;;;10.27;81.07;99251.50;5067654;28;20063;-90
2022/11/07 04:04:40;;;;;;;5.60;1.35;;;;;;;10.34;80.61;99259.41;5050441;28;20021;-91
2022/11/07 04:07:05;;;;;;;3.90;0.88;;;;;;;10.32;81.02;99258.03;5049850;28;20033;-92
2022/11/07 04:09:31;;;;;;;3.72;1.55;;;;;;;10.38;80.82;99252.31;5049989;28;20040;-91
2022/11/07 04:17:25;;;;;;;5.13;1.25;;;;;;;10.38;80.81;99268.66;5030064;28;20068;-91
2022/11/07 04:19:54;;;;;;;4.88;2.17;;;;;;;10.38;80.65;99265.94;5048371;28;20118;-92
2022/11/07 04:22:20;;;;;;;3.08;1.13;;;;;;;10.34;80.41;99262.13;5052285;28;20141;-91
2022/11/07 04:24:45;;;;;;;3.83;1.58;;;;;;;10.35;80.80;99258.28;5069849;28;20142;-94
2022/11/07 04:29:55;;;;;;;;;;;;;;;10.30;80.56;99255.59;5070724;28;20499;-92
2022/11/07 04:32:23;;;;;;;5.10;1.50;;;;;;;10.34;80.80;99253.94;5066147;28;19912;-91
2022/11/07 04:34:48;;;;;;;2.72;0.98;;;;;;;10.35;80.52;99255.56;5048832;28;20037;-92
2022/11/07 04:37:13;;;;;;;10.63;1.10;;;;;;;10.38;80.63;99252.31;5049435;28;20029;-92
2022/11/07 04:39:39;;;;;;;3.10;1.00;;;;;;;10.31;80.56;99262.69;5049614;28;20470;-91
2022/11/07 04:42:04;;;;;;;3.17;1.27;;;;;;;10.43;80.56;99258.84;5049880;28;20462;-91
2022/11/07 04:44:29;;;;;;;4.32;1.70;;;;;;;10.43;80.29;99261.56;5070005;28;20133;-90
2022/11/07 04:46:55;;;;;;;2.67;0.98;;;;;;;10.41;80.63;99253.69;5069917;28;20027;-91
2022/11/07 04:49:20;;;;;;;7.03;1.67;;;;;;;10.37;80.53;99252.59;5054997;28;20028;-91
2022/11/07 04:51:45;;;;;;;11.00;1.77;;;;;;;10.38;80.69;99255.03;5049539;28;20056;-91
2022/11/07 04:54:14;;;;;;;5.65;1.20;;;;;;;10.43;80.47;99258.84;5049417;28;20118;-91
2022/11/07 04:56:40;;;;;;;10.15;2.30;;;;;;;10.41;80.56;99258.31;5049785;28;20029;-91
2022/11/07 04:59:05;;;;;;;4.45;1.80;;;;;;;10.46;80.05;99258.28;5049763;28;20036;-91
2022/11/07 05:01:31;;;;;;;5.78;1.23;;;;;;;10.39;80.39;99259.38;5049351;28;20055;-93
2022/11/07 05:03:56;;;;;;;4.18;1.70;;;;;;;10.45;80.12;99262.09;5065841;28;20121;-90
2022/11/07 05:06:22;;;;;;;5.80;1.63;;;;;;;10.44;80.35;99247.66;5071527;28;20041;-91
2022/11/07 05:08:48;;;;;;;9.13;2.25;;;;;;;10.41;80.41;99250.94;5071711;28;20638;-92
2022/11/07 05:11:13;;;;;;;4.75;2.10;;;;;;;10.31;80.56;99256.41;5073092;28;20094;-91
2022/11/07 05:13:38;;;;;;;5.05;1.65;;;;;;;10.40;80.34;99254.75;5058688;28;20037;-91
2022/11/07 05:16:04;;;;;;;4.60;2.05;;;;;;;10.38;80.52;99254.22;5053492;28;20477;-92
2022/11/07 05:18:29;;;;;;;4.85;1.70;;;;;;;10.39;80.55;99248.47;5052932;28;20024;-92
2022/11/07 05:20:55;;;;;;;3.83;1.40;;;;;;;10.47;80.43;99249.03;5053907;28;20029;-91
2022/11/07 05:23:21;;;;;;;10.27;1.40;;;;;;;10.42;80.46;99241.66;5063643;28;20082;-90
2022/11/07 05:25:53;;;;;;;5.05;1.98;;;;;;;10.34;80.58;99251.22;5073185;28;20035;-91
2022/11/07 05:28:25;;;;;;;5.68;1.48;;;;;;;10.35;80.23;99255.56;5072758;28;20032;-92
2022/11/07 05:30:50;;;;;;;4.07;1.63;;;;;;;10.36;80.37;99248.22;5073164;28;20035;-92
2022/11/07 05:33:17;;;;;;;4.65;2.15;;;;;;;10.33;80.81;99249.59;5072442;28;20119;-92
2022/11/07 05:35:44;;;;;;;12.40;1.85;;;;;;;10.32;80.71;99247.97;5072123;28;20515;-91
2022/11/07 05:38:10;;;;;;;9.02;2.35;;;;;;;10.38;80.33;99252.31;5072326;28;20030;-92
2022/11/07 05:40:37;;;;;;;5.63;1.52;;;;;;;10.38;80.38;99252.31;5071903;28;20036;-93
2022/11/07 05:43:06;;;;;;;5.45;1.80;;;;;;;10.31;80.28;99259.97;5063584;28;20044;-92
2022/11/07 05:45:33;;;;;;;5.65;2.03;;;;;;;10.35;80.64;99263.75;5052656;28;20037;-91
2022/11/07 05:48:00;;;;;;;6.75;2.08;;;;;;;10.34;80.63;99256.69;5052376;28;20473;-92
2022/11/07 05:50:27;;;;;;;6.53;1.33;;;;;;;10.39;80.51;99264.03;5052743;28;20436;-91
2022/11/07 05:52:52;;;;;;;30.15;2.30;;;;;;;10.46;80.16;99259.09;5050709;28;20037;-92
2022/11/07 05:55:18;;;;;;;5.93;1.67;;;;;;;10.42;80.22;99263.47;5052749;28;20051;-91
2022/11/07 05:57:43;;;;;;;5.78;1.83;;;;;;;10.46;79.98;99266.44;5052572;28;20025;-91
2022/11/07 06:00:09;;;;;;;6.40;1.88;;;;;;;10.46;80.14;99263.72;5052117;28;20079;-92
2022/11/07 06:02:34;;;;;;;7.50;1.80;;;;;;;10.50;79.88;99267.56;5056898;28;20059;-92
2022/11/07 06:05:00;;;;;;;13.02;2.42;;;;;;;10.46;80.14;99269.19;5072327;28;20039;-92
2022/11/07 06:07:25;;;;;;;6.82;1.70;;;;;;;10.48;80.24;99277.91;5072174;28;20093;-92
2022/11/07 06:09:50;;;;;;;4.38;1.10;;;;;;;10.40;80.13;99276.56;5072018;28;20038;-92
2022/11/07 06:12:16;;;;;;;5.57;1.50;;;;;;;10.43;80.06;99278.75;5071793;28;20090;-92
2022/11/07 06:14:41;;;;;;;7.03;2.53;;;;;;;10.45;79.99;99275.75;5072296;28;20485;-92
2022/11/07 06:17:06;;;;;;;4.93;1.23;;;;;;;10.43;80.22;99272.47;5071667;28;20033;-93
2022/11/07 06:19:32;;;;;;;3.97;1.08;;;;;;;10.44;80.12;99271.38;5055700;28;20119;-92
2022/11/07 06:21:59;;;;;;;3.70;0.93;;;;;;;10.38;80.11;99279.56;5051467;28;20036;-94
2022/11/07 06:24:25;;;;;;;4.18;1.40;;;;;;;10.48;79.66;99284.16;5031650;28;20037;-91
2022/11/07 06:26:50;;;;;;;5.03;1.10;;;;;;;10.51;79.63;99289.09;5031618;28;20486;-92
2022/11/07 06:29:15;;;;;;;7.40;2.67;;;;;;;10.45;79.65;99278.47;5032136;28;20033;-91
2022/11/07 06:31:41;;;;;;;4.45;1.63;;;;;;;10.50;79.47;99287.47;5031265;28;20485;-91
2022/11/07 06:34:06;;;;;;;4.85;1.58;;;;;;;10.56;79.37;99288.25;5048372;28;20101;-91
2022/11/07 06:36:31;;;;;;;3.40;1.30;;;;;;;10.54;79.35;99290.44;5050837;28;20037;-91
2022/11/07 06:38:57;;;;;;;12.52;3.10;;;;;;;10.60;78.92;99283.91;5051418;28;20057;-92
2022/11/07 06:41:22;;;;;;;10.25;1.88;;;;;;;10.67;78.74;99290.97;5051560;28;20097;-91
2022/11/07 06:43:50;;;;;;;5.53;1.38;;;;;;;10.72;78.65;99285.50;5066317;28;20160;-91
2022/11/07 06:46:16;;;;;;;11.68;2.13;;;;;;;10.81;79.13;99293.91;5071716;28;20488;-91
2022/11/07 06:48:41;;;;;;;4.30;1.80;;;;;;;10.75;78.76;99284.94;5062003;28;20025;-91
2022/11/07 06:51:08;;;;;;;8.13;1.10;;;;;;;10.80;78.46;99278.66;5051704;28;20078;-92
2022/11/07 06:53:34;;;;;;;8.68;1.50;;;;;;;10.82;78.30;99296.38;5063920;28;20036;-90
2022/11/07 06:56:01;;;;;;;9.43;1.55;;;;;;;10.76;78.49;99297.47;5071558;28;20036;-92
2022/11/07 06:58:27;;;;;;;11.70;1.45;;;;;;;10.88;78.54;99312.72;5071452;28;20032;-93
2022/11/07 07:00:52;;;;;;;9.77;1.67;;;;;;;10.88;78.72;99313.56;5071186;28;20067;-91
2022/11/07 07:03:18;;;;;;;4.57;1.30;;;;;;;10.91;78.72;99298.53;5059475;28;20440;-92
2022/11/07 07:05:43;;;;;;;3.33;1.40;;;;;;;10.88;78.85;99305.38;5051035;28;20088;-91
2022/11/07 07:08:11;;;;;;;4.07;1.40;;;;;;;10.98;78.14;99318.16;5050725;28;20024;-92
2022/11/07 07:10:39;;;;;;;4.00;1.30;;;;;;;10.94;78.05;99317.06;5051280;28;20033;-92
2022/11/07 07:13:05;;;;;;;9.43;1.85;;;;;;;11.01;78.26;99317.59;5059746;28;20039;-92
2022/11/07 07:15:31;;;;;;;6.65;2.22;;;;;;;11.05;78.47;99313.19;5070624;28;20126;-91
2022/11/07 07:18:01;;;;;;;10.38;3.35;;;;;;;11.03;78.07;99304.47;5067505;28;20035;-91
2022/11/07 07:20:27;;;;;;;3.55;1.45;;;;;;;11.08;77.88;99318.09;5049578;28;20362;-92
2022/11/07 07:22:53;;;;;;;5.97;1.73;;;;;;;11.12;77.80;99312.09;5049956;28;20493;-92
2022/11/07 07:25:18;;;;;;;11.05;2.10;;;;;;;11.11;77.69;99316.72;5050668;28;20029;-91
2022/11/07 07:27:43;;;;;;;4.65;1.08;;;;;;;11.16;77.79;99329.53;5049473;28;20025;-93
2022/11/07 07:30:09;;;;;;;5.30;1.83;;;;;;;11.05;78.12;99329.56;5050434;28;20037;-92
2022/11/07 07:32:35;;;;;;;3.90;1.50;;;;;;;11.15;77.69;99336.88;5055181;28;20028;-93
2022/11/07 07:35:01;;;;;;;5.55;1.10;;;;;;;11.21;77.29;99332.22;5070461;28;20025;-92
2022/11/07 07:37:26;;;;;;;6.80;1.52;;;;;;;11.17;77.51;99328.41;5070406;28;20024;-92
2022/11/07 07:39:51;;;;;;;4.35;0.93;;;;;;;11.14;77.38;99339.91;5070637;28;20127;-91
2022/11/07 07:42:17;;;;;;;5.70;1.10;;;;;;;11.19;77.35;99337.16;5071377;28;20097;-91
2022/11/07 07:44:42;;;;;;;5.68;1.42;;;;;;;11.25;77.37;99344.22;5051291;28;20117;-91
2022/11/07 07:47:08;;;;;;;4.03;1.65;;;;;;;11.24;77.39;99334.41;5050630;28;20036;-92
2022/11/07 07:49:33;;;;;;;5.35;1.33;;;;;;;11.30;77.09;99329.75;5050676;28;20112;-91
2022/11/07 07:51:58;;;;;;;4.85;1.38;;;;;;;11.24;77.36;99336.31;5050250;28;20086;-93
2022/11/07 07:54:23;;;;;;;5.22;1.65;;;;;;;11.19;77.50;99335.25;5050368;28;20029;-91
2022/11/07 07:56:49;;;;;;;5.65;1.10;;;;;;;11.20;77.34;99338.78;5049738;28;20056;-92
2022/11/07 07:59:14;;;;;;;6.13;2.00;;;;;;;11.28;77.33;99337.38;5050077;28;20033;-93
2022/11/07 08:01:39;;;;;;;4.97;1.85;;;;;;;11.28;77.60;99338.22;5048895;28;20037;-93
2022/11/07 08:04:05;;;;;;;9.63;1.65;;;;;;;11.39;77.46;99338.16;5051983;28;20386;-94
2022/11/07 08:06:31;;;;;;;5.90;1.85;;;;;;;11.38;77.33;99340.06;5050385;28;20090;-93
2022/11/07 08:08:56;;;;;;;5.75;1.98;;;;;;;11.45;77.46;99334.31;5049640;28;20256;-93
2022/11/07 08:11:22;;;;;;;5.40;1.38;;;;;;;11.41;77.52;99347.69;5049699;28;20045;-93
2022/11/07 08:13:47;;;;;;;6.05;1.90;;;;;;;11.55;77.61;99345.16;5051608;28;20362;-93
2022/11/07 08:16:13;;;;;;;6.07;1.63;;;;;;;11.56;76.87;99346.81;5049641;28;20024;-94
2022/11/07 08:18:41;;;;;;;4.90;1.55;;;;;;;11.50;77.25;99353.38;5049115;28;20071;-93
2022/11/07 08:21:06;;;;;;;10.27;3.03;;;;;;;11.62;77.14;99341.31;5049526;28;20029;-93
2022/11/07 08:23:32;;;;;;;9.63;1.95;;;;;;;11.62;77.48;99352.22;5051312;28;20040;-94
2022/11/07 08:25:59;;;;;;;6.60;2.00;;;;;;;11.69;77.29;99369.13;5049701;28;20036;-93
2022/11/07 08:28:26;;;;;;;9.45;2.38;;;;;;;11.73;77.18;99367.47;5043155;28;20052;-93
2022/11/07 08:31:06;;;;;;;7.03;1.27;;;;;;;11.72;77.04;99371.28;5049636;28;20040;-94
2022/11/07 08:33:31;;;;;;;4.80;1.10;;;;;;;11.68;77.91;99370.22;5061741;28;20071;-94
2022/11/07 08:36:01;;;;;;;7.55;1.25;;;;;;;11.81;77.45;99371.50;5068958;28;20462;-93
2022/11/07 08:38:41;;;;;;;3.08;1.58;;;;;;;11.68;77.50;99373.75;5069863;28;20020;-94
2022/11/07 08:41:07;;;;;;;3.65;1.27;;;;;;;11.65;77.75;99374.31;5074078;28;20409;-94
2022/11/07 08:43:35;;;;;;;4.55;1.45;;;;;;;11.68;78.06;99368.31;5062417;28;20071;-96
2022/11/07 08:46:08;;;;;;;5.95;1.17;;;;;;;11.65;78.67;99373.53;5053553;28;20083;-95
2022/11/07 08:48:33;;;;;;;6.82;2.45;;;;;;;11.66;78.54;99370.50;5051941;28;20490;-94
2022/11/07 08:51:01;;;;;;;6.13;1.75;;;;;;;11.65;78.41;99368.84;5055207;28;20045;-93
2022/11/07 08:53:31;;;;;;;8.88;1.48;;;;;;;11.76;78.68;99380.53;5065141;28;20032;-94
2022/11/07 08:56:07;;;;;;;5.30;2.35;;;;;;;11.81;78.11;99387.06;5065919;28;20024;-93
2022/11/07 08:58:41;;;;;;;5.90;1.80;;;;;;;11.68;78.68;99378.41;5053646;28;20488;-94
2022/11/07 09:01:15;;;;;;;8.80;2.10;;;;;;;11.85;78.67;99377.22;5053749;28;20049;-94
2022/11/07 09:03:40;;;;;;;;;;;;;;;11.84;78.86;99381.06;5068141;28;20055;-94
2022/11/07 09:06:06;;;;;;;7.90;2.30;;;;;;;11.92;78.36;99372.25;5074232;28;19912;-94
2022/11/07 09:08:34;;;;;;;6.85;2.10;;;;;;;12.08;78.18;99359.28;5073626;28;20027;-94
2022/11/07 09:11:05;;;;;;;7.55;1.55;;;;;;;12.03;78.44;99365.63;5073772;28;20025;-95
2022/11/07 09:13:33;;;;;;;8.45;2.50;;;;;;;12.03;78.42;99370.28;5073133;28;20534;-95
2022/11/07 09:16:02;;;;;;;6.15;2.20;;;;;;;11.92;78.73;99364.03;5053187;28;20279;-94
2022/11/07 09:18:28;;;;;;;5.80;1.63;;;;;;;11.97;78.73;99369.50;5052794;28;20060;-92
2022/11/07 09:20:57;;;;;;;3.95;1.45;;;;;;;11.91;79.20;99373.34;5053153;28;20033;-92
2022/11/07 09:23:35;;;;;;;;;;;;;;;;;;;;;
2022/11/07 09:26:05;;;;;;;7.75;2.90;;;;;;;12.01;79.03;99378.75;5050061;28;20045;-93
2022/11/07 09:28:34;;;;;;;5.03;1.70;;;;;;;12.12;78.98;99379.50;5053431;28;20094;-92
2022/11/07 09:31:01;;;;;;;3.80;1.17;;;;;;;12.21;78.51;99374.25;5053142;28;20047;-92
2022/11/07 09:33:29;;;;;;;6.82;1.40;;;;;;;12.30;78.40;99384.59;5064642;28;20123;-92
2022/11/07 09:36:22;;;;;;;7.00;2.05;;;;;;;12.30;78.68;99388.16;5073135;28;20099;-92
2022/11/07 09:38:48;;;;;;;3.85;1.50;;;;;;;12.31;78.39;99378.00;5060976;28;20389;-92
2022/11/07 09:41:19;;;;;;;8.13;2.75;;;;;;;12.31;78.89;99389.75;5033014;28;20115;-92
2022/11/07 09:44:21;;;;;;;8.18;1.70;;;;;;;12.34;78.55;99408.34;5061898;28;20055;-93
2022/11/07 09:47:15;;;;;;;10.25;2.22;;;;;;;12.39;78.82;99403.94;5072809;28;20032;-93
2022/11/07 09:49:45;;;;;;;6.60;1.83;;;;;;;12.33;79.01;99409.44;5055641;28;20062;-92
2022/11/07 09:52:27;;;;;;;6.43;1.77;;;;;;;12.34;79.10;99416.53;5051283;28;20033;-92
2022/11/07 09:55:02;;;;;;;7.22;2.30;;;;;;;12.32;78.92;99426.13;5072981;28;20036;-93
2022/11/07 09:57:32;;;;;;;11.32;2.13;;;;;;;12.23;79.40;99426.72;5072737;28;20044;-92
2022/11/07 10:00:03;;;;;;;7.22;1.83;;;;;;;12.25;80.13;99435.47;5072799;28;20405;-92
2022/11/07 10:02:31;;;;;;;7.93;1.60;;;;;;;12.23;79.92;99440.38;5068331;28;20036;-93
2022/11/07 10:05:00;;;;;;;11.95;1.85;;;;;;;12.16;82.46;99439.91;5052297;28;20073;-91
2022/11/07 10:07:48;;;;;;;6.65;1.33;;;;;;;12.13;83.68;99445.91;5052045;28;20459;-92
2022/11/07 10:10:13;;;;;;;8.23;2.47;;;;;;;12.08;84.77;99440.47;5052588;28;20033;-91
2022/11/07 10:12:45;;;;;;;4.77;1.33;;;;;;;12.13;84.71;99454.13;5051221;28;20043;-92
2022/11/07 10:15:29;;;;;;;8.10;1.40;;;;;;;12.17;84.50;99446.97;5048200;28;20301;-92
2022/11/07 10:18:14;;;;;;;8.35;2.13;;;;;;;12.22;84.96;99457.91;5052558;28;20461;-93
2022/11/07 10:20:54;;;;;;;4.63;1.35;;;;;;;12.07;84.93;99449.75;5059887;28;20102;-92
2022/11/07 10:24:10;;;;;;;703.40;111.20;;;;;;;12.03;86.47;99461.25;5070628;28;20063;-92
2022/11/07 10:26:38;;;;;;;122.00;11.13;;;;;;;12.13;86.75;99459.59;5059674;28;20398;-93
2022/11/07 10:29:20;;;;;;;14.93;3.17;;;;;;;11.97;87.92;99465.13;5053699;28;20025;-93
2022/11/07 10:31:56;;;;;;;15.32;2.45;;;;;;;12.00;88.18;99459.06;5063206;28;20029;-94
2022/11/07 10:34:36;;;;;;;5.38;1.35;;;;;;;11.91;89.76;99474.44;5066381;28;20041;-92
2022/11/07 10:37:02;;;;;;;5.75;1.70;;;;;;;11.77;91.01;99469.59;5046403;28;20974;-92
2022/11/07 10:39:30;;;;;;;78.70;12.45;;;;;;;11.87;90.63;99468.72;5057552;28;20044;-92
2022/11/07 10:42:04;;;;;;;11.20;2.40;;;;;;;11.78;91.35;99479.41;5069221;28;20070;-96
2022/11/07 10:44:30;;;;;;;6.95;1.90;;;;;;;11.70;92.53;99471.78;5051515;28;20033;-92
2022/11/07 10:46:56;;;;;;;4.63;1.58;;;;;;;11.91;92.35;99475.25;5053854;28;20037;-91
2022/11/07 10:49:30;;;;;;;4.15;1.60;;;;;;;11.84;93.12;99479.38;5064052;28;20119;-92
2022/11/07 10:52:16;;;;;;;7.25;2.92;;;;;;;11.71;93.81;99467.97;5073045;28;20075;-91
2022/11/07 10:54:43;;;;;;;5.75;2.28;;;;;;;11.77;93.76;99466.84;5061077;28;20045;-92
2022/11/07 10:57:12;;;;;;;9.80;3.58;;;;;;;11.70;94.39;99458.13;5056581;28;20345;-92
2022/11/07 10:59:57;;;;;;;7.07;3.40;;;;;;;11.76;94.44;99462.47;5066701;28;20478;-92
2022/11/07 11:02:40;;;;;;;9.90;2.13;;;;;;;11.84;94.17;99446.63;5059431;28;20036;-94
2022/11/07 11:05:21;;;;;;;4.80;2.45;;;;;;;12.04;94.05;99453.84;5061235;28;20025;-93
2022/11/07 11:07:49;;;;;;;4.50;1.50;;;;;;;11.90;93.99;99446.28;5059793;28;20033;-93
2022/11/07 11:10:29;;;;;;;6.03;2.08;;;;;;;12.01;93.18;99455.25;5063086;28;20029;-91
2022/11/07 11:12:55;;;;;;;6.95;3.15;;;;;;;12.09;93.12;99453.00;5052918;28;20526;-93
2022/11/07 11:15:27;;;;;;;8.45;2.70;;;;;;;11.91;93.54;99447.94;5055891;28;20108;-91
2022/11/07 11:18:02;;;;;;;26.58;4.57;;;;;;;12.09;92.87;99447.56;5043451;28;20218;-92
2022/11/07 11:20:33;;;;;;;14.90;3.00;;;;;;;12.10;92.93;99435.53;5056116;28;20037;-92
2022/11/07 11:23:05;;;;;;;9.05;2.50;;;;;;;12.10;92.75;99432.81;5046529;28;20116;-93
2022/11/07 11:25:43;;;;;;;6.53;2.22;;;;;;;12.19;92.91;99441.22;5051935;28;20469;-92
2022/11/07 11:28:17;;;;;;;4.75;1.63;;;;;;;12.36;92.21;99436.22;5061479;28;20736;-92
2022/11/07 11:30:46;;;;;;;14.20;3.55;;;;;;;12.28;92.29;99442.28;5058481;28;20041;-92
2022/11/07 11:33:17;;;;;;;7.45;1.70;;;;;;;12.29;91.86;99451.28;5061785;28;20473;-91
2022/11/07 11:35:52;;;;;;;10.63;2.58;;;;;;;12.25;91.85;99449.13;5058436;28;20037;-94
2022/11/07 11:38:25;;;;;;;11.07;2.60;;;;;;;12.43;92.14;99451.44;5050796;28;20033;-92
2022/11/07 11:41:16;;;;;;;5.63;1.75;;;;;;;12.48;91.45;99445.94;5055724;28;20098;-93
2022/11/07 11:43:57;;;;;;;6.07;2.40;;;;;;;12.58;91.76;99436.84;5059580;28;20691;-92
2022/11/07 11:46:29;;;;;;;7.82;1.52;;;;;;;12.45;91.43;99435.56;5048080;28;20029;-93
2022/11/07 11:48:59;;;;;;;6.00;2.38;;;;;;;12.53;90.88;99429.50;5053732;28;20029;-91